sensor_id;sensor_type;location;lat;lon;timestamp;P1;durP1;ratioP1;P2;durP2;ratioP2
47894;SDS011;33653;52.302;8.134;2023-02-15T00:00:11;5.73;;;4.90;;
47894;SDS011;33653;52.302;8.134;2023-02-15T00:02:39;9.23;;;5.47;;
47894;SDS011;33653;52.302;8.134;2023-02-15T00:05:07;6.97;;;5.20;;
47894;SDS011;33653;52.302;8.134;2023-02-15T00:07:35;10.30;;;5.77;;
47894;SDS011;33653;52.302;8.134;2023-02-15T00:10:03;6.10;;;4.20;;
47894;SDS011;33653;52.302;8.134;2023-02-15T00:12:32;7.47;;;5.47;;
47894;SDS011;33653;52.302;8.134;2023-02-15T00:15:00;8.93;;;5.77;;
47894;SDS011;33653;52.302;8.134;2023-02-15T00:17:28;6.27;;;4.87;;
47894;SDS011;33653;52.302;8.134;2023-02-15T00:19:56;7.33;;;5.10;;
47894;SDS011;33653;52.302;8.134;2023-02-15T00:22:24;9.57;;;5.03;;
47894;SDS011;33653;52.302;8.134;2023-02-15T00:24:52;10.77;;;6.93;;
47894;SDS011;33653;52.302;8.134;2023-02-15T00:27:20;9.70;;;6.63;;
47894;SDS011;33653;52.302;8.134;2023-02-15T00:29:48;9.50;;;6.03;;
47894;SDS011;33653;52.302;8.134;2023-02-15T00:32:16;10.67;;;5.50;;
47894;SDS011;33653;52.302;8.134;2023-02-15T00:34:44;8.50;;;5.27;;
47894;SDS011;33653;52.302;8.134;2023-02-15T00:37:12;7.83;;;5.30;;
47894;SDS011;33653;52.302;8.134;2023-02-15T00:39:39;9.77;;;6.93;;
47894;SDS011;33653;52.302;8.134;2023-02-15T00:42:07;8.37;;;4.83;;
47894;SDS011;33653;52.302;8.134;2023-02-15T00:44:35;5.97;;;5.37;;
47894;SDS011;33653;52.302;8.134;2023-02-15T00:47:03;9.17;;;5.57;;
47894;SDS011;33653;52.302;8.134;2023-02-15T00:49:31;9.73;;;5.03;;
47894;SDS011;33653;52.302;8.134;2023-02-15T00:51:59;6.30;;;5.63;;
47894;SDS011;33653;52.302;8.134;2023-02-15T00:54:27;7.60;;;4.03;;
47894;SDS011;33653;52.302;8.134;2023-02-15T00:56:55;7.33;;;5.27;;
47894;SDS011;33653;52.302;8.134;2023-02-15T00:59:23;10.30;;;5.77;;
47894;SDS011;33653;52.302;8.134;2023-02-15T01:01:52;5.63;;;5.10;;
47894;SDS011;33653;52.302;8.134;2023-02-15T01:04:19;8.80;;;5.37;;
47894;SDS011;33653;52.302;8.134;2023-02-15T01:06:47;8.17;;;4.67;;
47894;SDS011;33653;52.302;8.134;2023-02-15T01:09:15;5.97;;;4.37;;
47894;SDS011;33653;52.302;8.134;2023-02-15T01:11:43;6.57;;;5.10;;
47894;SDS011;33653;52.302;8.134;2023-02-15T01:14:11;7.20;;;5.30;;
47894;SDS011;33653;52.302;8.134;2023-02-15T01:16:41;10.73;;;6.43;;
47894;SDS011;33653;52.302;8.134;2023-02-15T01:19:08;7.00;;;4.80;;
47894;SDS011;33653;52.302;8.134;2023-02-15T01:21:38;6.87;;;4.97;;
47894;SDS011;33653;52.302;8.134;2023-02-15T01:24:12;9.73;;;5.07;;
47894;SDS011;33653;52.302;8.134;2023-02-15T01:26:41;5.13;;;4.63;;
47894;SDS011;33653;52.302;8.134;2023-02-15T01:29:08;6.27;;;5.10;;
47894;SDS011;33653;52.302;8.134;2023-02-15T01:31:36;11.77;;;5.87;;
47894;SDS011;33653;52.302;8.134;2023-02-15T01:34:06;9.37;;;6.33;;
47894;SDS011;33653;52.302;8.134;2023-02-15T01:36:34;7.73;;;5.53;;
47894;SDS011;33653;52.302;8.134;2023-02-15T01:39:02;4.60;;;3.83;;
47894;SDS011;33653;52.302;8.134;2023-02-15T01:41:30;7.90;;;5.00;;
47894;SDS011;33653;52.302;8.134;2023-02-15T01:44:00;7.03;;;5.33;;
47894;SDS011;33653;52.302;8.134;2023-02-15T01:46:40;6.03;;;4.07;;
47894;SDS011;33653;52.302;8.134;2023-02-15T01:49:19;7.63;;;4.53;;
47894;SDS011;33653;52.302;8.134;2023-02-15T01:51:48;8.13;;;5.77;;
47894;SDS011;33653;52.302;8.134;2023-02-15T01:54:27;6.07;;;4.18;;
47894;SDS011;33653;52.302;8.134;2023-02-15T01:57:00;10.60;;;5.40;;
47894;SDS011;33653;52.302;8.134;2023-02-15T01:59:32;6.27;;;4.30;;
47894;SDS011;33653;52.302;8.134;2023-02-15T02:02:02;7.20;;;5.20;;
47894;SDS011;33653;52.302;8.134;2023-02-15T02:04:50;7.68;;;4.95;;
47894;SDS011;33653;52.302;8.134;2023-02-15T02:07:23;10.47;;;5.27;;
47894;SDS011;33653;52.302;8.134;2023-02-15T02:09:54;11.73;;;5.63;;
47894;SDS011;33653;52.302;8.134;2023-02-15T02:12:23;5.47;;;4.23;;
47894;SDS011;33653;52.302;8.134;2023-02-15T02:14:51;5.77;;;4.60;;
47894;SDS011;33653;52.302;8.134;2023-02-15T02:17:28;8.57;;;5.60;;
47894;SDS011;33653;52.302;8.134;2023-02-15T02:34:55;5.68;;;3.85;;
47894;SDS011;33653;52.302;8.134;2023-02-15T02:37:47;4.40;;;4.00;;
47894;SDS011;33653;52.302;8.134;2023-02-15T02:46:00;6.97;;;5.87;;
47894;SDS011;33653;52.302;8.134;2023-02-15T02:48:37;8.73;;;4.40;;
47894;SDS011;33653;52.302;8.134;2023-02-15T02:51:05;6.27;;;4.10;;
47894;SDS011;33653;52.302;8.134;2023-02-15T02:53:33;7.57;;;5.53;;
47894;SDS011;33653;52.302;8.134;2023-02-15T02:56:04;7.03;;;5.27;;
47894;SDS011;33653;52.302;8.134;2023-02-15T03:04:50;5.97;;;4.70;;
47894;SDS011;33653;52.302;8.134;2023-02-15T03:07:30;8.52;;;5.40;;
47894;SDS011;33653;52.302;8.134;2023-02-15T03:12:32;9.43;;;5.33;;
47894;SDS011;33653;52.302;8.134;2023-02-15T03:18:16;5.53;;;4.83;;
47894;SDS011;33653;52.302;8.134;2023-02-15T03:20:48;5.93;;;4.90;;
47894;SDS011;33653;52.302;8.134;2023-02-15T03:23:17;5.73;;;4.53;;
47894;SDS011;33653;52.302;8.134;2023-02-15T03:25:51;5.80;;;5.07;;
47894;SDS011;33653;52.302;8.134;2023-02-15T03:28:29;6.77;;;5.20;;
47894;SDS011;33653;52.302;8.134;2023-02-15T03:31:03;6.87;;;4.80;;
47894;SDS011;33653;52.302;8.134;2023-02-15T03:33:34;12.43;;;5.03;;
47894;SDS011;33653;52.302;8.134;2023-02-15T03:36:09;5.80;;;4.77;;
47894;SDS011;33653;52.302;8.134;2023-02-15T03:38:51;11.77;;;6.03;;
47894;SDS011;33653;52.302;8.134;2023-02-15T03:41:27;6.38;;;4.70;;
47894;SDS011;33653;52.302;8.134;2023-02-15T03:44:04;10.17;;;6.40;;
47894;SDS011;33653;52.302;8.134;2023-02-15T03:46:42;4.87;;;3.87;;
47894;SDS011;33653;52.302;8.134;2023-02-15T03:50:17;7.17;;;4.37;;
47894;SDS011;33653;52.302;8.134;2023-02-15T03:52:31;7.40;;;4.37;;
47894;SDS011;33653;52.302;8.134;2023-02-15T03:54:59;9.53;;;7.17;;
47894;SDS011;33653;52.302;8.134;2023-02-15T03:57:28;9.07;;;6.07;;
47894;SDS011;33653;52.302;8.134;2023-02-15T04:05:42;8.37;;;3.70;;
47894;SDS011;33653;52.302;8.134;2023-02-15T04:08:11;7.17;;;5.57;;
47894;SDS011;33653;52.302;8.134;2023-02-15T04:10:40;9.07;;;4.97;;
47894;SDS011;33653;52.302;8.134;2023-02-15T04:13:20;7.73;;;4.93;;
47894;SDS011;33653;52.302;8.134;2023-02-15T04:15:57;5.27;;;4.60;;
47894;SDS011;33653;52.302;8.134;2023-02-15T04:18:41;8.00;;;5.53;;
47894;SDS011;33653;52.302;8.134;2023-02-15T04:21:29;5.33;;;4.17;;
47894;SDS011;33653;52.302;8.134;2023-02-15T04:24:16;9.53;;;5.73;;
47894;SDS011;33653;52.302;8.134;2023-02-15T04:27:03;6.10;;;4.63;;
47894;SDS011;33653;52.302;8.134;2023-02-15T04:29:32;8.80;;;4.80;;
47894;SDS011;33653;52.302;8.134;2023-02-15T04:32:00;8.63;;;4.97;;
47894;SDS011;33653;52.302;8.134;2023-02-15T04:34:29;5.60;;;4.53;;
47894;SDS011;33653;52.302;8.134;2023-02-15T04:36:57;9.13;;;5.17;;
47894;SDS011;33653;52.302;8.134;2023-02-15T04:39:25;7.30;;;4.97;;
47894;SDS011;33653;52.302;8.134;2023-02-15T04:41:53;7.40;;;4.97;;
47894;SDS011;33653;52.302;8.134;2023-02-15T04:44:21;8.23;;;4.60;;
47894;SDS011;33653;52.302;8.134;2023-02-15T04:46:49;9.40;;;4.97;;
47894;SDS011;33653;52.302;8.134;2023-02-15T04:49:16;6.47;;;5.87;;
47894;SDS011;33653;52.302;8.134;2023-02-15T04:51:44;8.43;;;6.07;;
47894;SDS011;33653;52.302;8.134;2023-02-15T04:54:12;7.33;;;4.47;;
47894;SDS011;33653;52.302;8.134;2023-02-15T04:56:40;8.30;;;5.70;;
47894;SDS011;33653;52.302;8.134;2023-02-15T04:59:12;7.73;;;4.27;;
47894;SDS011;33653;52.302;8.134;2023-02-15T05:01:40;10.45;;;5.10;;
47894;SDS011;33653;52.302;8.134;2023-02-15T05:04:08;8.03;;;5.00;;
47894;SDS011;33653;52.302;8.134;2023-02-15T05:06:36;8.53;;;4.53;;
47894;SDS011;33653;52.302;8.134;2023-02-15T05:09:04;4.90;;;4.47;;
47894;SDS011;33653;52.302;8.134;2023-02-15T05:11:32;9.40;;;4.60;;
47894;SDS011;33653;52.302;8.134;2023-02-15T05:13:59;5.67;;;4.20;;
47894;SDS011;33653;52.302;8.134;2023-02-15T05:16:27;5.80;;;5.03;;
47894;SDS011;33653;52.302;8.134;2023-02-15T05:18:55;9.97;;;5.17;;
47894;SDS011;33653;52.302;8.134;2023-02-15T05:21:23;9.53;;;4.77;;
47894;SDS011;33653;52.302;8.134;2023-02-15T05:23:51;4.63;;;3.90;;
47894;SDS011;33653;52.302;8.134;2023-02-15T05:26:20;6.27;;;4.53;;
47894;SDS011;33653;52.302;8.134;2023-02-15T05:29:09;4.80;;;4.30;;
47894;SDS011;33653;52.302;8.134;2023-02-15T05:31:38;8.17;;;6.20;;
47894;SDS011;33653;52.302;8.134;2023-02-15T05:34:06;7.50;;;5.10;;
47894;SDS011;33653;52.302;8.134;2023-02-15T05:36:34;7.90;;;5.43;;
47894;SDS011;33653;52.302;8.134;2023-02-15T05:39:02;9.83;;;4.13;;
47894;SDS011;33653;52.302;8.134;2023-02-15T05:41:32;14.77;;;5.70;;
47894;SDS011;33653;52.302;8.134;2023-02-15T05:44:00;7.00;;;4.30;;
47894;SDS011;33653;52.302;8.134;2023-02-15T05:46:28;6.27;;;4.57;;
47894;SDS011;33653;52.302;8.134;2023-02-15T05:48:56;5.57;;;4.67;;
47894;SDS011;33653;52.302;8.134;2023-02-15T05:51:24;9.03;;;4.70;;
47894;SDS011;33653;52.302;8.134;2023-02-15T05:53:51;10.67;;;5.93;;
47894;SDS011;33653;52.302;8.134;2023-02-15T05:56:19;6.57;;;4.40;;
47894;SDS011;33653;52.302;8.134;2023-02-15T05:58:48;5.17;;;4.53;;
47894;SDS011;33653;52.302;8.134;2023-02-15T06:01:17;7.33;;;5.30;;
47894;SDS011;33653;52.302;8.134;2023-02-15T06:03:48;7.77;;;4.10;;
47894;SDS011;33653;52.302;8.134;2023-02-15T06:06:16;7.30;;;4.73;;
47894;SDS011;33653;52.302;8.134;2023-02-15T06:08:44;6.37;;;4.63;;
47894;SDS011;33653;52.302;8.134;2023-02-15T06:11:12;8.33;;;4.17;;
47894;SDS011;33653;52.302;8.134;2023-02-15T06:13:40;7.87;;;5.20;;
47894;SDS011;33653;52.302;8.134;2023-02-15T06:16:08;6.90;;;5.40;;
47894;SDS011;33653;52.302;8.134;2023-02-15T06:18:36;7.17;;;5.40;;
47894;SDS011;33653;52.302;8.134;2023-02-15T06:21:04;6.77;;;4.43;;
47894;SDS011;33653;52.302;8.134;2023-02-15T06:23:32;6.53;;;4.57;;
47894;SDS011;33653;52.302;8.134;2023-02-15T06:25:59;13.03;;;4.93;;
47894;SDS011;33653;52.302;8.134;2023-02-15T06:28:28;9.00;;;7.07;;
47894;SDS011;33653;52.302;8.134;2023-02-15T06:30:56;10.40;;;7.80;;
47894;SDS011;33653;52.302;8.134;2023-02-15T06:33:24;9.60;;;6.33;;
47894;SDS011;33653;52.302;8.134;2023-02-15T06:35:52;7.23;;;4.57;;
47894;SDS011;33653;52.302;8.134;2023-02-15T06:38:20;5.20;;;4.60;;
47894;SDS011;33653;52.302;8.134;2023-02-15T06:40:48;10.93;;;5.23;;
47894;SDS011;33653;52.302;8.134;2023-02-15T06:43:15;7.50;;;4.97;;
47894;SDS011;33653;52.302;8.134;2023-02-15T06:45:43;7.40;;;5.17;;
47894;SDS011;33653;52.302;8.134;2023-02-15T06:48:11;10.20;;;5.03;;
47894;SDS011;33653;52.302;8.134;2023-02-15T06:50:39;7.73;;;4.73;;
47894;SDS011;33653;52.302;8.134;2023-02-15T06:53:07;8.20;;;6.30;;
47894;SDS011;33653;52.302;8.134;2023-02-15T06:55:35;6.70;;;4.63;;
47894;SDS011;33653;52.302;8.134;2023-02-15T06:58:03;5.23;;;4.73;;
47894;SDS011;33653;52.302;8.134;2023-02-15T07:00:30;9.10;;;5.50;;
47894;SDS011;33653;52.302;8.134;2023-02-15T07:02:59;7.60;;;4.53;;
47894;SDS011;33653;52.302;8.134;2023-02-15T07:05:27;6.77;;;4.10;;
47894;SDS011;33653;52.302;8.134;2023-02-15T07:07:58;8.98;;;4.82;;
47894;SDS011;33653;52.302;8.134;2023-02-15T07:10:27;10.03;;;5.00;;
47894;SDS011;33653;52.302;8.134;2023-02-15T07:12:55;9.67;;;5.67;;
47894;SDS011;33653;52.302;8.134;2023-02-15T07:15:23;10.70;;;5.63;;
47894;SDS011;33653;52.302;8.134;2023-02-15T07:17:51;6.67;;;4.27;;
47894;SDS011;33653;52.302;8.134;2023-02-15T07:20:20;5.77;;;4.07;;
47894;SDS011;33653;52.302;8.134;2023-02-15T07:22:50;6.87;;;5.03;;
47894;SDS011;33653;52.302;8.134;2023-02-15T07:25:18;5.33;;;4.40;;
47894;SDS011;33653;52.302;8.134;2023-02-15T07:27:46;10.60;;;5.40;;
47894;SDS011;33653;52.302;8.134;2023-02-15T07:30:15;7.57;;;4.67;;
47894;SDS011;33653;52.302;8.134;2023-02-15T07:32:44;6.80;;;4.20;;
47894;SDS011;33653;52.302;8.134;2023-02-15T07:35:32;8.87;;;5.60;;
47894;SDS011;33653;52.302;8.134;2023-02-15T07:38:00;5.40;;;4.03;;
47894;SDS011;33653;52.302;8.134;2023-02-15T07:40:28;6.97;;;4.57;;
47894;SDS011;33653;52.302;8.134;2023-02-15T07:42:57;8.67;;;4.67;;
47894;SDS011;33653;52.302;8.134;2023-02-15T07:45:25;8.80;;;6.40;;
47894;SDS011;33653;52.302;8.134;2023-02-15T07:47:53;7.33;;;4.97;;
47894;SDS011;33653;52.302;8.134;2023-02-15T07:50:21;6.07;;;5.20;;
47894;SDS011;33653;52.302;8.134;2023-02-15T07:52:49;7.97;;;5.37;;
47894;SDS011;33653;52.302;8.134;2023-02-15T07:55:17;10.93;;;7.10;;
47894;SDS011;33653;52.302;8.134;2023-02-15T07:57:46;8.43;;;5.43;;
47894;SDS011;33653;52.302;8.134;2023-02-15T08:02:52;7.10;;;4.70;;
47894;SDS011;33653;52.302;8.134;2023-02-15T08:05:41;12.53;;;6.23;;
47894;SDS011;33653;52.302;8.134;2023-02-15T08:08:10;12.07;;;5.77;;
47894;SDS011;33653;52.302;8.134;2023-02-15T08:16:24;12.30;;;5.97;;
47894;SDS011;33653;52.302;8.134;2023-02-15T08:19:06;5.50;;;4.50;;
47894;SDS011;33653;52.302;8.134;2023-02-15T08:21:37;9.20;;;6.25;;
47894;SDS011;33653;52.302;8.134;2023-02-15T08:26:35;4.37;;;3.80;;
47894;SDS011;33653;52.302;8.134;2023-02-15T08:29:08;9.90;;;5.07;;
47894;SDS011;33653;52.302;8.134;2023-02-15T08:31:36;6.93;;;4.53;;
47894;SDS011;33653;52.302;8.134;2023-02-15T08:34:05;8.67;;;6.13;;
47894;SDS011;33653;52.302;8.134;2023-02-15T08:36:33;11.37;;;7.07;;
47894;SDS011;33653;52.302;8.134;2023-02-15T08:39:02;6.80;;;4.67;;
47894;SDS011;33653;52.302;8.134;2023-02-15T08:41:33;6.73;;;4.77;;
47894;SDS011;33653;52.302;8.134;2023-02-15T08:44:04;7.30;;;5.15;;
47894;SDS011;33653;52.302;8.134;2023-02-15T08:46:38;9.33;;;5.17;;
47894;SDS011;33653;52.302;8.134;2023-02-15T08:49:08;9.87;;;7.33;;
47894;SDS011;33653;52.302;8.134;2023-02-15T08:51:39;10.25;;;5.28;;
47894;SDS011;33653;52.302;8.134;2023-02-15T08:54:08;8.30;;;4.80;;
47894;SDS011;33653;52.302;8.134;2023-02-15T08:56:40;13.17;;;7.40;;
47894;SDS011;33653;52.302;8.134;2023-02-15T08:59:27;7.03;;;5.33;;
47894;SDS011;33653;52.302;8.134;2023-02-15T09:01:55;9.20;;;5.80;;
47894;SDS011;33653;52.302;8.134;2023-02-15T09:04:23;9.80;;;5.43;;
47894;SDS011;33653;52.302;8.134;2023-02-15T09:06:51;14.23;;;6.17;;
47894;SDS011;33653;52.302;8.134;2023-02-15T09:09:19;8.13;;;6.07;;
47894;SDS011;33653;52.302;8.134;2023-02-15T09:11:48;8.30;;;5.83;;
47894;SDS011;33653;52.302;8.134;2023-02-15T09:14:25;9.40;;;5.93;;
47894;SDS011;33653;52.302;8.134;2023-02-15T09:16:53;8.93;;;6.23;;
47894;SDS011;33653;52.302;8.134;2023-02-15T09:19:22;7.83;;;5.13;;
47894;SDS011;33653;52.302;8.134;2023-02-15T09:21:50;8.20;;;5.03;;
47894;SDS011;33653;52.302;8.134;2023-02-15T09:24:18;9.10;;;7.00;;
47894;SDS011;33653;52.302;8.134;2023-02-15T09:26:46;12.80;;;6.13;;
47894;SDS011;33653;52.302;8.134;2023-02-15T09:29:15;8.70;;;6.33;;
47894;SDS011;33653;52.302;8.134;2023-02-15T09:31:48;17.03;;;7.57;;
47894;SDS011;33653;52.302;8.134;2023-02-15T09:34:18;11.30;;;6.73;;
47894;SDS011;33653;52.302;8.134;2023-02-15T09:36:48;8.30;;;6.22;;
47894;SDS011;33653;52.302;8.134;2023-02-15T09:39:19;14.23;;;6.13;;
47894;SDS011;33653;52.302;8.134;2023-02-15T09:56:22;8.70;;;5.70;;
47894;SDS011;33653;52.302;8.134;2023-02-15T09:59:23;10.98;;;6.22;;
47894;SDS011;33653;52.302;8.134;2023-02-15T10:02:34;11.38;;;7.22;;
47894;SDS011;33653;52.302;8.134;2023-02-15T10:05:36;14.43;;;6.05;;
47894;SDS011;33653;52.302;8.134;2023-02-15T10:14:31;13.77;;;7.97;;
47894;SDS011;33653;52.302;8.134;2023-02-15T10:23:05;14.23;;;8.05;;
47894;SDS011;33653;52.302;8.134;2023-02-15T10:29:03;9.77;;;6.32;;
47894;SDS011;33653;52.302;8.134;2023-02-15T10:35:18;13.95;;;7.60;;
47894;SDS011;33653;52.302;8.134;2023-02-15T10:38:13;13.35;;;7.75;;
47894;SDS011;33653;52.302;8.134;2023-02-15T10:41:09;14.90;;;8.23;;
47894;SDS011;33653;52.302;8.134;2023-02-15T10:46:40;14.60;;;8.70;;
47894;SDS011;33653;52.302;8.134;2023-02-15T11:00:54;11.65;;;7.85;;
47894;SDS011;33653;52.302;8.134;2023-02-15T11:04:08;11.63;;;7.68;;
47894;SDS011;33653;52.302;8.134;2023-02-15T11:06:56;13.90;;;7.95;;
47894;SDS011;33653;52.302;8.134;2023-02-15T11:12:28;16.85;;;8.13;;
47894;SDS011;33653;52.302;8.134;2023-02-15T11:17:58;16.13;;;7.85;;
47894;SDS011;33653;52.302;8.134;2023-02-15T11:20:43;15.38;;;8.40;;
47894;SDS011;33653;52.302;8.134;2023-02-15T11:23:30;11.52;;;7.07;;
47894;SDS011;33653;52.302;8.134;2023-02-15T11:26:03;16.42;;;9.27;;
47894;SDS011;33653;52.302;8.134;2023-02-15T11:28:49;14.95;;;7.43;;
47894;SDS011;33653;52.302;8.134;2023-02-15T11:31:23;16.45;;;8.55;;
47894;SDS011;33653;52.302;8.134;2023-02-15T11:33:55;16.58;;;8.77;;
47894;SDS011;33653;52.302;8.134;2023-02-15T11:36:31;16.63;;;9.48;;
47894;SDS011;33653;52.302;8.134;2023-02-15T11:39:08;18.60;;;9.25;;
47894;SDS011;33653;52.302;8.134;2023-02-15T11:41:41;17.50;;;9.07;;
47894;SDS011;33653;52.302;8.134;2023-02-15T11:46:54;18.10;;;9.60;;
47894;SDS011;33653;52.302;8.134;2023-02-15T11:49:24;16.10;;;9.65;;
47894;SDS011;33653;52.302;8.134;2023-02-15T11:52:00;15.57;;;9.55;;
47894;SDS011;33653;52.302;8.134;2023-02-15T11:54:33;18.10;;;9.93;;
47894;SDS011;33653;52.302;8.134;2023-02-15T11:59:58;16.38;;;10.68;;
47894;SDS011;33653;52.302;8.134;2023-02-15T12:02:40;17.83;;;9.60;;
47894;SDS011;33653;52.302;8.134;2023-02-15T12:05:17;14.93;;;8.60;;
47894;SDS011;33653;52.302;8.134;2023-02-15T12:07:52;14.80;;;8.70;;
47894;SDS011;33653;52.302;8.134;2023-02-15T12:10:34;18.33;;;9.40;;
47894;SDS011;33653;52.302;8.134;2023-02-15T12:13:15;18.17;;;9.88;;
47894;SDS011;33653;52.302;8.134;2023-02-15T12:15:48;21.48;;;10.30;;
47894;SDS011;33653;52.302;8.134;2023-02-15T12:21:08;18.30;;;10.13;;
47894;SDS011;33653;52.302;8.134;2023-02-15T12:23:46;17.58;;;10.02;;
47894;SDS011;33653;52.302;8.134;2023-02-15T12:26:32;16.67;;;10.15;;
47894;SDS011;33653;52.302;8.134;2023-02-15T12:29:17;16.42;;;9.95;;
47894;SDS011;33653;52.302;8.134;2023-02-15T12:31:52;18.13;;;10.80;;
47894;SDS011;33653;52.302;8.134;2023-02-15T12:37:07;19.23;;;10.70;;
47894;SDS011;33653;52.302;8.134;2023-02-15T12:39:59;18.95;;;11.00;;
47894;SDS011;33653;52.302;8.134;2023-02-15T12:42:40;16.48;;;10.20;;
47894;SDS011;33653;52.302;8.134;2023-02-15T12:45:22;20.45;;;11.27;;
47894;SDS011;33653;52.302;8.134;2023-02-15T12:55:51;18.80;;;10.30;;
47894;SDS011;33653;52.302;8.134;2023-02-15T12:58:28;22.15;;;12.05;;
47894;SDS011;33653;52.302;8.134;2023-02-15T13:06:29;20.90;;;10.70;;
47894;SDS011;33653;52.302;8.134;2023-02-15T13:09:16;18.85;;;11.57;;
47894;SDS011;33653;52.302;8.134;2023-02-15T13:11:46;22.23;;;11.68;;
47894;SDS011;33653;52.302;8.134;2023-02-15T13:14:18;21.90;;;12.35;;
47894;SDS011;33653;52.302;8.134;2023-02-15T13:17:00;22.30;;;11.98;;
47894;SDS011;33653;52.302;8.134;2023-02-15T13:19:36;25.38;;;12.07;;
47894;SDS011;33653;52.302;8.134;2023-02-15T13:22:14;20.20;;;11.50;;
47894;SDS011;33653;52.302;8.134;2023-02-15T13:24:48;20.52;;;11.80;;
47894;SDS011;33653;52.302;8.134;2023-02-15T13:27:21;21.00;;;11.73;;
47894;SDS011;33653;52.302;8.134;2023-02-15T13:29:57;24.45;;;11.48;;
47894;SDS011;33653;52.302;8.134;2023-02-15T13:32:31;20.42;;;11.68;;
47894;SDS011;33653;52.302;8.134;2023-02-15T13:35:04;21.77;;;12.13;;
47894;SDS011;33653;52.302;8.134;2023-02-15T13:55:00;23.85;;;11.82;;
47894;SDS011;33653;52.302;8.134;2023-02-15T13:58:11;20.15;;;10.70;;
47894;SDS011;33653;52.302;8.134;2023-02-15T14:00:57;18.55;;;10.85;;
47894;SDS011;33653;52.302;8.134;2023-02-15T14:09:57;19.15;;;11.15;;
47894;SDS011;33653;52.302;8.134;2023-02-15T14:16:05;21.40;;;11.23;;
47894;SDS011;33653;52.302;8.134;2023-02-15T14:21:50;21.23;;;11.60;;
47894;SDS011;33653;52.302;8.134;2023-02-15T14:26:50;26.20;;;11.55;;
47894;SDS011;33653;52.302;8.134;2023-02-15T14:32:29;20.27;;;10.20;;
47894;SDS011;33653;52.302;8.134;2023-02-15T14:35:04;22.45;;;11.70;;
47894;SDS011;33653;52.302;8.134;2023-02-15T14:44:01;24.83;;;11.55;;
47894;SDS011;33653;52.302;8.134;2023-02-15T14:46:48;23.10;;;10.60;;
47894;SDS011;33653;52.302;8.134;2023-02-15T14:49:32;21.73;;;10.82;;
47894;SDS011;33653;52.302;8.134;2023-02-15T14:52:07;20.17;;;9.93;;
47894;SDS011;33653;52.302;8.134;2023-02-15T15:02:17;21.80;;;10.53;;
47894;SDS011;33653;52.302;8.134;2023-02-15T15:04:58;23.95;;;9.40;;
47894;SDS011;33653;52.302;8.134;2023-02-15T15:07:38;23.45;;;10.40;;
47894;SDS011;33653;52.302;8.134;2023-02-15T15:10:36;20.65;;;10.10;;
47894;SDS011;33653;52.302;8.134;2023-02-15T15:19:02;19.50;;;9.93;;
47894;SDS011;33653;52.302;8.134;2023-02-15T15:27:52;22.15;;;9.82;;
47894;SDS011;33653;52.302;8.134;2023-02-15T15:38:45;23.38;;;10.20;;
47894;SDS011;33653;52.302;8.134;2023-02-15T15:47:17;20.00;;;9.75;;
47894;SDS011;33653;52.302;8.134;2023-02-15T15:50:12;23.20;;;10.38;;
47894;SDS011;33653;52.302;8.134;2023-02-15T15:52:46;21.30;;;9.75;;
47894;SDS011;33653;52.302;8.134;2023-02-15T15:55:22;21.85;;;11.13;;
47894;SDS011;33653;52.302;8.134;2023-02-15T15:57:54;24.88;;;10.85;;
47894;SDS011;33653;52.302;8.134;2023-02-15T16:03:23;20.33;;;10.45;;
47894;SDS011;33653;52.302;8.134;2023-02-15T16:05:53;24.45;;;11.52;;
47894;SDS011;33653;52.302;8.134;2023-02-15T16:08:26;19.50;;;10.60;;
47894;SDS011;33653;52.302;8.134;2023-02-15T16:10:56;21.60;;;10.05;;
47894;SDS011;33653;52.302;8.134;2023-02-15T16:13:27;26.50;;;11.32;;
47894;SDS011;33653;52.302;8.134;2023-02-15T16:15:55;20.00;;;10.95;;
47894;SDS011;33653;52.302;8.134;2023-02-15T16:18:24;18.40;;;10.65;;
47894;SDS011;33653;52.302;8.134;2023-02-15T16:20:54;24.83;;;11.48;;
47894;SDS011;33653;52.302;8.134;2023-02-15T16:29:18;31.02;;;11.20;;
47894;SDS011;33653;52.302;8.134;2023-02-15T16:32:06;22.27;;;11.20;;
47894;SDS011;33653;52.302;8.134;2023-02-15T16:34:54;21.05;;;9.50;;
47894;SDS011;33653;52.302;8.134;2023-02-15T16:37:31;22.88;;;12.43;;
47894;SDS011;33653;52.302;8.134;2023-02-15T16:40:00;25.90;;;12.07;;
47894;SDS011;33653;52.302;8.134;2023-02-15T16:42:29;28.55;;;14.77;;
47894;SDS011;33653;52.302;8.134;2023-02-15T16:47:40;23.17;;;12.20;;
47894;SDS011;33653;52.302;8.134;2023-02-15T16:53:02;23.00;;;10.82;;
47894;SDS011;33653;52.302;8.134;2023-02-15T16:55:40;23.75;;;11.00;;
47894;SDS011;33653;52.302;8.134;2023-02-15T16:58:13;22.33;;;11.43;;
47894;SDS011;33653;52.302;8.134;2023-02-15T17:00:43;20.42;;;11.15;;
47894;SDS011;33653;52.302;8.134;2023-02-15T17:13:26;22.20;;;9.98;;
47894;SDS011;33653;52.302;8.134;2023-02-15T17:18:28;21.60;;;11.27;;
47894;SDS011;33653;52.302;8.134;2023-02-15T17:21:09;23.05;;;10.38;;
47894;SDS011;33653;52.302;8.134;2023-02-15T17:23:41;25.08;;;11.05;;
47894;SDS011;33653;52.302;8.134;2023-02-15T17:26:23;33.58;;;12.85;;
47894;SDS011;33653;52.302;8.134;2023-02-15T17:29:02;22.33;;;9.38;;
47894;SDS011;33653;52.302;8.134;2023-02-15T17:31:43;22.98;;;10.70;;
47894;SDS011;33653;52.302;8.134;2023-02-15T17:40:10;29.00;;;10.43;;
47894;SDS011;33653;52.302;8.134;2023-02-15T17:42:54;23.25;;;10.57;;
47894;SDS011;33653;52.302;8.134;2023-02-15T17:45:24;23.25;;;10.43;;
47894;SDS011;33653;52.302;8.134;2023-02-15T17:48:00;22.48;;;10.10;;
47894;SDS011;33653;52.302;8.134;2023-02-15T17:50:31;19.58;;;10.05;;
47894;SDS011;33653;52.302;8.134;2023-02-15T17:52:59;21.27;;;11.68;;
47894;SDS011;33653;52.302;8.134;2023-02-15T17:55:28;27.60;;;11.55;;
47894;SDS011;33653;52.302;8.134;2023-02-15T17:58:03;20.30;;;9.07;;
47894;SDS011;33653;52.302;8.134;2023-02-15T18:00:35;16.48;;;8.80;;
47894;SDS011;33653;52.302;8.134;2023-02-15T18:03:25;20.38;;;9.80;;
47894;SDS011;33653;52.302;8.134;2023-02-15T18:06:30;20.77;;;10.75;;
47894;SDS011;33653;52.302;8.134;2023-02-15T18:09:18;24.13;;;10.77;;
47894;SDS011;33653;52.302;8.134;2023-02-15T18:14:49;22.92;;;12.18;;
47894;SDS011;33653;52.302;8.134;2023-02-15T18:17:31;25.20;;;11.20;;
47894;SDS011;33653;52.302;8.134;2023-02-15T18:20:09;18.10;;;9.73;;
47894;SDS011;33653;52.302;8.134;2023-02-15T18:22:44;20.75;;;10.55;;
47894;SDS011;33653;52.302;8.134;2023-02-15T18:25:13;23.67;;;10.57;;
47894;SDS011;33653;52.302;8.134;2023-02-15T18:27:42;22.27;;;10.65;;
47894;SDS011;33653;52.302;8.134;2023-02-15T18:30:18;22.75;;;10.60;;
47894;SDS011;33653;52.302;8.134;2023-02-15T18:32:49;17.48;;;9.65;;
47894;SDS011;33653;52.302;8.134;2023-02-15T18:35:19;21.17;;;10.73;;
47894;SDS011;33653;52.302;8.134;2023-02-15T18:37:51;20.10;;;10.80;;
47894;SDS011;33653;52.302;8.134;2023-02-15T18:40:20;23.70;;;10.82;;
47894;SDS011;33653;52.302;8.134;2023-02-15T18:42:52;15.98;;;8.23;;
47894;SDS011;33653;52.302;8.134;2023-02-15T18:45:26;23.42;;;9.10;;
47894;SDS011;33653;52.302;8.134;2023-02-15T18:47:59;15.90;;;9.13;;
47894;SDS011;33653;52.302;8.134;2023-02-15T18:50:28;17.35;;;9.75;;
47894;SDS011;33653;52.302;8.134;2023-02-15T18:52:59;17.50;;;8.82;;
47894;SDS011;33653;52.302;8.134;2023-02-15T18:55:30;16.83;;;9.48;;
47894;SDS011;33653;52.302;8.134;2023-02-15T18:57:58;26.67;;;10.32;;
47894;SDS011;33653;52.302;8.134;2023-02-15T19:00:28;18.55;;;10.18;;
47894;SDS011;33653;52.302;8.134;2023-02-15T19:02:59;22.95;;;10.27;;
47894;SDS011;33653;52.302;8.134;2023-02-15T19:05:28;26.60;;;11.90;;
47894;SDS011;33653;52.302;8.134;2023-02-15T19:07:57;30.05;;;11.45;;
47894;SDS011;33653;52.302;8.134;2023-02-15T19:10:27;18.50;;;10.35;;
47894;SDS011;33653;52.302;8.134;2023-02-15T19:12:57;22.20;;;10.40;;